Plaistow, NH (03865)

7:07 PM EDT on October 01, 2016 (GMT -0400)
APRSWXNET | | Change Station

Elev 187 ft 42.82 °N, 71.08 °W | Updated 1 hour ago

Light Rain
Light Rain Mist
51 °F
Feels Like 51 °F
N
0
Wind Variable Wind from West
Gusts 1.0 mph

Today
High -- | Low -- °F
--% Chance of Precip.
Yesterday
High -- | Low -- °F
Precip. -- in
Pressure 30.25 in
Visibility 2.5 miles
Clouds Overcast 600 ft
Dew Point 47 °F
Humidity 86%
Rainfall in
Snow Depth Not available.
6:42 AM 6:24 PM
New Moon, 1% visible
SPECI KLWM 012302Z 02009KT 2 1/2SM -RA BR OVC006 13/12 A3025 RMK AO2 RAB2256 P0000 T01280117
Pressure 30.25 in
Visibility 2.5 miles
Clouds Overcast 600 ft
Dew Point 47 °F
Humidity 86%
Rainfall in
Snow Depth Not available.
6:42 AM 6:24 PM
New Moon, 1% visible
SPECI KLWM 012302Z 02009KT 2 1/2SM -RA BR OVC006 13/12 A3025 RMK AO2 RAB2256 P0000 T01280117

10-Day Weather Forecast

Almanac

Astronomy

Oct. 01, 2016 Rise Set
Actual Time
Civil Twilight
Nautical Twilight
Astronomical Twilight
Moon
Length of Visible Light
Length of Day
Tomorrow will be .
, % of the Moon is Illuminated

Today's Extremes

State Highs State Lows

Community

WunderPhotos

Upload Photos

1,943,047 photos uploaded!

WunderBlog® & News

Nearby

Air Quality

  Air Quality AQ Index Pollutant
Not available.

Snow Depth

Station Depth Elevation

Earthquake Activity

City Distance Mag. Time & Date
Minimum magnitude displayed is 2.5.

Coastal Water Temperatures

Place Temperature

Stations

Nearby Weather Stations

Station Location Temp. Windchill Dew Point Humidity Wind Precip. Elev Updated Type
                   

Watches & Warnings

There are currently no watches in effect.